Time;durP1;ratioP1;P1;durP2;ratioP2;P2;SDS_P1;SDS_P2;PMS_P1;PMS_P2;Temp;Humidity;BMP_temperature;BMP_pressure;BME280_temperature;BME280_humidity;BME280_pressure;Samples;Min_cycle;Max_cycle;Signal;HPM_P1;HPM_P2
2023/09/17 00:00:37;;;;;;;31.15;27.85;;;;;;;;;;4846662;29;20054;-80
2023/09/17 00:03:03;;;;;;;29.63;26.42;;;;;;;;;;4866183;29;20516;-79
2023/09/17 00:05:29;;;;;;;30.98;26.40;;;;;;;;;;4866189;29;20052;-80
2023/09/17 00:07:55;;;;;;;27.52;24.80;;;;;;;;;;4863875;29;20048;-80
2023/09/17 00:10:22;;;;;;;27.27;24.23;;;;;;;;;;4870200;29;20079;-80
2023/09/17 00:12:48;;;;;;;25.77;23.38;;;;;;;;;;4870561;29;20285;-79
2023/09/17 00:15:15;;;;;;;26.00;23.40;;;;;;;;;;4867558;29;20485;-79
2023/09/17 00:17:41;;;;;;;25.85;23.25;;;;;;;;;;4867429;29;20075;-79
2023/09/17 00:20:11;;;;;;;24.13;21.80;;;;;;;;;;4871595;29;20044;-79
2023/09/17 00:22:38;;;;;;;22.33;20.08;;;;;;;;;;4874029;29;20056;-80
2023/09/17 00:25:04;;;;;;;15.02;13.52;;;;;;;;;;4872571;29;20409;-80
2023/09/17 00:27:30;;;;;;;14.70;13.38;;;;;;;;;;4870980;29;20137;-79
2023/09/17 00:29:56;;;;;;;13.93;12.73;;;;;;;;;;4855237;29;20509;-79
2023/09/17 00:32:22;;;;;;;17.83;16.13;;;;;;;;;;4871859;29;20084;-80
2023/09/17 00:34:49;;;;;;;16.42;14.75;;;;;;;;;;4877125;29;21142;-80
2023/09/17 00:37:15;;;;;;;18.00;16.17;;;;;;;;;;4868771;29;21912;-79
2023/09/17 00:39:41;;;;;;;22.52;20.23;;;;;;;;;;4876048;29;21103;-80
2023/09/17 00:42:07;;;;;;;19.25;17.35;;;;;;;;;;4861201;29;20064;-80
2023/09/17 00:44:33;;;;;;;18.63;16.67;;;;;;;;;;4862016;29;20064;-80
2023/09/17 00:47:02;;;;;;;18.75;16.23;;;;;;;;;;4861960;29;20186;-80
2023/09/17 00:49:29;;;;;;;22.83;18.77;;;;;;;;;;4875961;29;20990;-80
2023/09/17 00:51:56;;;;;;;20.85;18.85;;;;;;;;;;4861478;29;20131;-80
2023/09/17 00:54:24;;;;;;;23.52;21.05;;;;;;;;;;4864941;29;20048;-80
2023/09/17 00:56:53;;;;;;;23.60;21.05;;;;;;;;;;4863326;29;20060;-80
2023/09/17 00:59:19;;;;;;;23.90;21.60;;;;;;;;;;4861107;29;20051;-80
2023/09/17 01:01:46;;;;;;;25.08;20.38;;;;;;;;;;4862058;29;20044;-80
2023/09/17 01:04:15;;;;;;;24.50;21.90;;;;;;;;;;4865701;29;20425;-80
2023/09/17 01:06:41;;;;;;;27.35;22.95;;;;;;;;;;4862059;29;20045;-80
2023/09/17 01:09:08;;;;;;;27.10;24.17;;;;;;;;;;4863161;29;20750;-80
2023/09/17 01:11:34;;;;;;;25.80;23.23;;;;;;;;;;4878547;29;20052;-80
2023/09/17 01:14:08;;;;;;;24.45;21.90;;;;;;;;;;4851528;29;20502;-81
2023/09/17 01:16:35;;;;;;;27.67;23.13;;;;;;;;;;4866913;29;20060;-80
2023/09/17 01:19:03;;;;;;;23.70;21.40;;;;;;;;;;4864874;29;20135;-80
2023/09/17 01:21:36;;;;;;;23.13;20.77;;;;;;;;;;4860126;29;21527;-80
2023/09/17 01:24:08;;;;;;;24.45;21.85;;;;;;;;;;4864990;29;20511;-80
2023/09/17 01:26:36;;;;;;;24.75;22.17;;;;;;;;;;4862226;29;20052;-80
2023/09/17 01:29:05;;;;;;;24.52;21.75;;;;;;;;;;4863812;29;20159;-79
2023/09/17 01:31:31;;;;;;;25.02;22.45;;;;;;;;;;4830257;29;20051;-79
2023/09/17 01:33:57;;;;;;;32.78;23.40;;;;;;;;;;4867022;29;20052;-79
2023/09/17 01:36:42;;;;;;;24.83;22.23;;;;;;;;;;4844815;29;20048;-79
2023/09/17 01:39:18;;;;;;;24.20;21.80;;;;;;;;;;4848793;29;20048;-79
2023/09/17 01:41:45;;;;;;;26.02;23.27;;;;;;;;;;4860617;29;20052;-78
2023/09/17 01:44:11;;;;;;;30.98;26.92;;;;;;;;;;4863333;29;20183;-79
2023/09/17 01:46:39;;;;;;;30.92;26.13;;;;;;;;;;4873914;29;20066;-79
2023/09/17 01:49:05;;;;;;;30.50;27.20;;;;;;;;;;4877399;29;20112;-80
2023/09/17 01:51:32;;;;;;;30.98;25.13;;;;;;;;;;4864935;29;20063;-79
2023/09/17 01:53:59;;;;;;;30.33;25.10;;;;;;;;;;4864177;29;20056;-79
2023/09/17 01:56:25;;;;;;;26.98;24.23;;;;;;;;;;4863980;29;20501;-79
2023/09/17 01:58:51;;;;;;;29.85;26.25;;;;;;;;;;4863387;29;20564;-79
2023/09/17 02:01:18;;;;;;;30.38;27.15;;;;;;;;;;4865859;29;20071;-79
2023/09/17 02:03:44;;;;;;;30.50;27.25;;;;;;;;;;4862831;29;20083;-80
2023/09/17 02:06:10;;;;;;;36.08;29.55;;;;;;;;;;4871124;29;20430;-79
2023/09/17 02:08:36;;;;;;;32.58;28.90;;;;;;;;;;4863353;29;20071;-79
2023/09/17 02:11:05;;;;;;;30.38;27.00;;;;;;;;;;4870337;29;20048;-80
2023/09/17 02:13:32;;;;;;;35.85;28.92;;;;;;;;;;4867584;29;20071;-80
2023/09/17 02:15:58;;;;;;;37.92;31.40;;;;;;;;;;4875428;29;20052;-80
2023/09/17 02:18:24;;;;;;;38.45;30.73;;;;;;;;;;4879213;29;20048;-80
2023/09/17 02:20:50;;;;;;;36.38;29.58;;;;;;;;;;4865393;29;20044;-80
2023/09/17 02:23:17;;;;;;;38.55;33.03;;;;;;;;;;4868599;29;21824;-80
2023/09/17 02:25:43;;;;;;;38.60;34.40;;;;;;;;;;4864941;29;20160;-80
2023/09/17 02:28:09;;;;;;;36.15;30.90;;;;;;;;;;4870485;29;20405;-80
2023/09/17 02:30:35;;;;;;;36.25;30.40;;;;;;;;;;4877251;29;20088;-80
2023/09/17 02:33:01;;;;;;;41.08;33.58;;;;;;;;;;4869622;29;20745;-80
2023/09/17 02:35:27;;;;;;;37.92;32.00;;;;;;;;;;4870507;29;20052;-80
2023/09/17 02:37:53;;;;;;;35.63;30.58;;;;;;;;;;4867141;29;20826;-80
2023/09/17 02:40:19;;;;;;;36.78;32.03;;;;;;;;;;4877058;29;20060;-80
2023/09/17 02:42:45;;;;;;;46.00;36.00;;;;;;;;;;4868827;29;20127;-80
2023/09/17 02:45:12;;;;;;;39.05;34.30;;;;;;;;;;4868790;29;20052;-80
2023/09/17 02:47:41;;;;;;;37.83;30.65;;;;;;;;;;4860728;29;20075;-80
2023/09/17 02:50:07;;;;;;;39.00;33.45;;;;;;;;;;4848813;29;20045;-80
2023/09/17 02:52:34;;;;;;;39.00;32.00;;;;;;;;;;4868058;29;20052;-80
2023/09/17 02:55:00;;;;;;;37.38;31.92;;;;;;;;;;4878185;29;20056;-80
2023/09/17 02:57:26;;;;;;;35.65;31.85;;;;;;;;;;4862548;29;20690;-80
2023/09/17 02:59:52;;;;;;;39.88;31.40;;;;;;;;;;4869998;29;20158;-81
2023/09/17 03:02:19;;;;;;;35.88;28.33;;;;;;;;;;4866517;29;21282;-81
2023/09/17 03:04:45;;;;;;;31.92;28.63;;;;;;;;;;4869526;29;20685;-80
2023/09/17 03:07:11;;;;;;;33.60;29.05;;;;;;;;;;4884815;29;20263;-80
2023/09/17 03:09:38;;;;;;;33.45;29.83;;;;;;;;;;4871086;29;20075;-80
2023/09/17 03:12:04;;;;;;;43.42;34.75;;;;;;;;;;4869807;29;20100;-80
2023/09/17 03:14:32;;;;;;;39.90;31.20;;;;;;;;;;4873764;29;20107;-80
2023/09/17 03:16:59;;;;;;;37.30;33.25;;;;;;;;;;4868653;29;20076;-80
2023/09/17 03:19:26;;;;;;;34.28;30.65;;;;;;;;;;4878871;29;20126;-80
2023/09/17 03:21:53;;;;;;;41.08;34.75;;;;;;;;;;4867505;29;20101;-80
2023/09/17 03:24:19;;;;;;;37.58;31.83;;;;;;;;;;4876398;29;20048;-80
2023/09/17 03:26:45;;;;;;;37.17;32.97;;;;;;;;;;4868145;29;20974;-80
2023/09/17 03:29:12;;;;;;;32.05;28.40;;;;;;;;;;4869107;29;20486;-80
2023/09/17 03:31:38;;;;;;;28.15;25.27;;;;;;;;;;4870301;29;20052;-79
2023/09/17 03:34:04;;;;;;;28.50;25.48;;;;;;;;;;4869639;29;20669;-79
2023/09/17 03:36:30;;;;;;;28.55;25.67;;;;;;;;;;4850178;29;20696;-80
2023/09/17 03:38:56;;;;;;;28.10;24.05;;;;;;;;;;4852884;29;20055;-80
2023/09/17 03:41:22;;;;;;;26.52;23.63;;;;;;;;;;4866379;29;20136;-80
2023/09/17 03:43:48;;;;;;;27.33;23.88;;;;;;;;;;4865546;29;20922;-79
2023/09/17 03:46:15;;;;;;;31.17;24.90;;;;;;;;;;4864462;29;20509;-80
2023/09/17 03:48:41;;;;;;;29.50;26.30;;;;;;;;;;4865612;29;20056;-80
2023/09/17 03:51:08;;;;;;;28.23;25.27;;;;;;;;;;4862891;29;20044;-80
2023/09/17 03:53:34;;;;;;;32.83;29.33;;;;;;;;;;4863317;29;20053;-80
2023/09/17 03:56:00;;;;;;;36.90;29.40;;;;;;;;;;4833521;29;20049;-80
2023/09/17 03:58:27;;;;;;;32.17;28.70;;;;;;;;;;4866207;29;20080;-80
2023/09/17 04:00:53;;;;;;;35.28;29.98;;;;;;;;;;4864793;29;20048;-81
2023/09/17 04:03:19;;;;;;;35.80;30.00;;;;;;;;;;4863015;29;20171;-80
2023/09/17 04:05:50;;;;;;;33.38;29.75;;;;;;;;;;4866237;29;20052;-80
2023/09/17 04:08:16;;;;;;;34.42;30.52;;;;;;;;;;4847685;29;20052;-79
2023/09/17 04:10:43;;;;;;;31.83;27.73;;;;;;;;;;4846190;29;20184;-81
2023/09/17 04:13:09;;;;;;;33.75;30.10;;;;;;;;;;4862394;29;20131;-80
2023/09/17 04:15:36;;;;;;;32.85;29.33;;;;;;;;;;4864379;29;20080;-80
2023/09/17 04:18:04;;;;;;;35.50;31.75;;;;;;;;;;4876609;29;20080;-81
2023/09/17 04:20:31;;;;;;;39.10;34.65;;;;;;;;;;4863590;29;20048;-80
2023/09/17 04:22:57;;;;;;;43.78;36.03;;;;;;;;;;4863801;29;20685;-79
2023/09/17 04:25:23;;;;;;;39.47;35.00;;;;;;;;;;4859533;29;20697;-80
2023/09/17 04:27:49;;;;;;;45.03;38.72;;;;;;;;;;4859109;29;20175;-80
2023/09/17 04:30:19;;;;;;;45.75;38.90;;;;;;;;;;4865462;29;20445;-80
2023/09/17 04:32:46;;;;;;;47.15;38.03;;;;;;;;;;4863614;29;20156;-80
2023/09/17 04:35:15;;;;;;;50.78;41.92;;;;;;;;;;4863713;29;20131;-80
2023/09/17 04:37:41;;;;;;;53.83;41.28;;;;;;;;;;4862155;29;20049;-81
2023/09/17 04:40:11;;;;;;;57.10;45.63;;;;;;;;;;4848411;29;20087;-81
2023/09/17 04:42:38;;;;;;;46.72;41.83;;;;;;;;;;4859664;29;20080;-81
2023/09/17 04:45:05;;;;;;;50.00;42.92;;;;;;;;;;4848056;29;20087;-81
2023/09/17 04:47:33;;;;;;;50.80;43.90;;;;;;;;;;4844156;29;20056;-81
2023/09/17 04:49:59;;;;;;;50.25;44.15;;;;;;;;;;4866355;29;20055;-81
2023/09/17 04:52:25;;;;;;;54.92;43.25;;;;;;;;;;4865840;29;20518;-81
2023/09/17 04:54:52;;;;;;;48.03;41.65;;;;;;;;;;4863117;29;20100;-81
2023/09/17 04:57:18;;;;;;;50.25;42.80;;;;;;;;;;4847272;29;20472;-80
2023/09/17 04:59:44;;;;;;;56.22;41.60;;;;;;;;;;4865918;29;20795;-81
2023/09/17 05:02:10;;;;;;;49.28;40.97;;;;;;;;;;4864001;29;20059;-80
2023/09/17 05:04:36;;;;;;;51.67;41.50;;;;;;;;;;4862869;29;20128;-80
2023/09/17 05:07:03;;;;;;;48.05;40.28;;;;;;;;;;4863979;29;20084;-81
2023/09/17 05:09:29;;;;;;;54.70;40.35;;;;;;;;;;4863900;29;20058;-78
2023/09/17 05:11:55;;;;;;;45.63;38.60;;;;;;;;;;4880469;29;20040;-80
2023/09/17 05:14:21;;;;;;;46.63;38.80;;;;;;;;;;4883448;29;20049;-80
2023/09/17 05:16:47;;;;;;;46.63;39.42;;;;;;;;;;4847684;29;22090;-80
2023/09/17 05:19:13;;;;;;;50.60;39.83;;;;;;;;;;4867419;29;20084;-81
2023/09/17 05:21:39;;;;;;;46.33;38.78;;;;;;;;;;4849214;29;20062;-79
2023/09/17 05:24:06;;;;;;;44.67;38.78;;;;;;;;;;4864667;29;20049;-80
2023/09/17 05:26:32;;;;;;;48.42;37.55;;;;;;;;;;4863234;29;20059;-80
2023/09/17 05:28:58;;;;;;;43.90;35.80;;;;;;;;;;4844706;29;20051;-80
2023/09/17 05:31:24;;;;;;;43.13;37.35;;;;;;;;;;4866800;29;20236;-81
2023/09/17 05:33:50;;;;;;;39.97;35.72;;;;;;;;;;4867683;29;20056;-81
2023/09/17 05:36:16;;;;;;;42.40;37.22;;;;;;;;;;4882743;29;20059;-82
2023/09/17 05:38:43;;;;;;;43.10;36.25;;;;;;;;;;4845543;29;20051;-82
2023/09/17 05:41:11;;;;;;;38.47;34.10;;;;;;;;;;4867814;29;20052;-82
2023/09/17 05:43:38;;;;;;;41.25;35.00;;;;;;;;;;4866778;29;20056;-81
2023/09/17 05:46:05;;;;;;;47.58;37.10;;;;;;;;;;4870135;29;20067;-81
2023/09/17 05:48:32;;;;;;;44.10;37.00;;;;;;;;;;4869518;29;20744;-80
2023/09/17 05:50:58;;;;;;;41.33;35.17;;;;;;;;;;4865511;29;20091;-80
2023/09/17 05:53:24;;;;;;;39.00;34.78;;;;;;;;;;4868669;29;20053;-80
2023/09/17 05:55:50;;;;;;;48.05;38.40;;;;;;;;;;4867076;29;20045;-79
2023/09/17 05:58:16;;;;;;;41.70;36.20;;;;;;;;;;4865879;29;20044;-80
2023/09/17 06:00:42;;;;;;;42.45;35.85;;;;;;;;;;4850889;29;20143;-80
2023/09/17 06:03:08;;;;;;;42.15;37.08;;;;;;;;;;4879304;29;20033;-81
2023/09/17 06:05:34;;;;;;;41.30;35.72;;;;;;;;;;4882863;29;20060;-81
2023/09/17 06:08:01;;;;;;;47.67;39.30;;;;;;;;;;4864206;29;20060;-80
2023/09/17 06:10:27;;;;;;;42.55;37.95;;;;;;;;;;4866628;29;20048;-81
2023/09/17 06:12:53;;;;;;;45.30;38.40;;;;;;;;;;4866415;29;20044;-81
2023/09/17 06:15:19;;;;;;;39.88;35.78;;;;;;;;;;4866490;29;20052;-81
2023/09/17 06:17:45;;;;;;;41.63;35.70;;;;;;;;;;4861245;29;20052;-81
2023/09/17 06:20:11;;;;;;;40.33;34.83;;;;;;;;;;4875874;29;20131;-80
2023/09/17 06:22:37;;;;;;;38.88;34.17;;;;;;;;;;4866089;29;20524;-81
2023/09/17 06:25:03;;;;;;;40.58;35.22;;;;;;;;;;4861496;29;20049;-81
2023/09/17 06:27:30;;;;;;;41.63;35.83;;;;;;;;;;4847392;29;20120;-80
2023/09/17 06:29:56;;;;;;;40.45;36.15;;;;;;;;;;4868705;29;20144;-81
2023/09/17 06:32:22;;;;;;;42.20;35.85;;;;;;;;;;4865494;29;20090;-80
2023/09/17 06:34:48;;;;;;;40.70;34.72;;;;;;;;;;4865947;29;20447;-81
2023/09/17 06:37:14;;;;;;;44.83;36.58;;;;;;;;;;4869662;29;20059;-81
2023/09/17 06:39:42;;;;;;;40.83;36.38;;;;;;;;;;4870100;29;20044;-80
2023/09/17 06:42:09;;;;;;;39.83;35.25;;;;;;;;;;4856485;29;20135;-81
2023/09/17 06:44:35;;;;;;;39.10;33.97;;;;;;;;;;4869983;29;20083;-81
2023/09/17 06:47:02;;;;;;;38.30;33.55;;;;;;;;;;4872485;29;20059;-82
2023/09/17 06:49:28;;;;;;;38.95;34.55;;;;;;;;;;4870712;29;20457;-80
2023/09/17 06:51:55;;;;;;;40.88;35.33;;;;;;;;;;4869245;29;20048;-81
2023/09/17 06:54:21;;;;;;;40.35;34.83;;;;;;;;;;4869187;29;20049;-80
2023/09/17 06:56:47;;;;;;;41.25;33.95;;;;;;;;;;4853569;29;20040;-80
2023/09/17 06:59:14;;;;;;;36.90;32.75;;;;;;;;;;4871529;29;20052;-79
2023/09/17 07:01:41;;;;;;;38.35;32.38;;;;;;;;;;4869839;29;20051;-79
2023/09/17 07:04:08;;;;;;;35.40;31.50;;;;;;;;;;4870214;29;20072;-79
2023/09/17 07:06:34;;;;;;;35.13;31.42;;;;;;;;;;4877696;29;20397;-79
2023/09/17 07:09:01;;;;;;;34.63;30.92;;;;;;;;;;4866875;29;20048;-79
2023/09/17 07:11:27;;;;;;;33.58;29.35;;;;;;;;;;4863444;29;20105;-79
2023/09/17 07:13:53;;;;;;;34.55;30.10;;;;;;;;;;4864481;29;20503;-79
2023/09/17 07:16:20;;;;;;;33.47;30.02;;;;;;;;;;4860121;29;20891;-79
2023/09/17 07:18:46;;;;;;;33.38;29.75;;;;;;;;;;4857055;29;20048;-79
2023/09/17 07:21:13;;;;;;;35.63;31.77;;;;;;;;;;4864805;29;20044;-79
2023/09/17 07:23:39;;;;;;;36.38;30.90;;;;;;;;;;4860382;29;20140;-79
2023/09/17 07:26:06;;;;;;;40.05;30.90;;;;;;;;;;4872648;29;20077;-79
2023/09/17 07:28:33;;;;;;;34.28;29.90;;;;;;;;;;4862448;29;20060;-79
2023/09/17 07:30:59;;;;;;;33.45;29.95;;;;;;;;;;4863495;29;20406;-79
2023/09/17 07:33:25;;;;;;;32.53;28.73;;;;;;;;;;4864387;29;20053;-79
2023/09/17 07:35:52;;;;;;;38.20;29.48;;;;;;;;;;4862633;29;20048;-79
2023/09/17 07:38:18;;;;;;;33.83;29.05;;;;;;;;;;4864294;29;20534;-80
2023/09/17 07:40:45;;;;;;;43.53;30.67;;;;;;;;;;4858515;29;21126;-80
2023/09/17 07:43:11;;;;;;;35.45;31.40;;;;;;;;;;4868685;29;20061;-79
2023/09/17 07:45:37;;;;;;;35.60;30.90;;;;;;;;;;4860662;29;20116;-78
2023/09/17 07:48:03;;;;;;;37.72;30.00;;;;;;;;;;4860336;29;20556;-78
2023/09/17 07:50:30;;;;;;;41.92;31.77;;;;;;;;;;4853495;29;20505;-79
2023/09/17 07:52:56;;;;;;;37.38;31.83;;;;;;;;;;4862143;29;20076;-78
2023/09/17 07:55:22;;;;;;;39.47;32.05;;;;;;;;;;4855868;29;20040;-78
2023/09/17 07:57:48;;;;;;;38.28;32.25;;;;;;;;;;4862612;29;20044;-78
2023/09/17 08:00:15;;;;;;;37.58;32.75;;;;;;;;;;4865875;29;20044;-79
2023/09/17 08:02:44;;;;;;;37.50;31.40;;;;;;;;;;4867338;29;20052;-79
2023/09/17 08:05:11;;;;;;;37.35;31.63;;;;;;;;;;4864822;29;20059;-79
2023/09/17 08:07:39;;;;;;;39.70;32.20;;;;;;;;;;4844593;29;20067;-80
2023/09/17 08:10:06;;;;;;;39.63;31.42;;;;;;;;;;4861376;29;20055;-79
2023/09/17 08:12:32;;;;;;;36.50;32.30;;;;;;;;;;4865432;29;20049;-79
2023/09/17 08:14:59;;;;;;;46.13;31.35;;;;;;;;;;4874396;29;20171;-78
2023/09/17 08:17:25;;;;;;;35.85;29.27;;;;;;;;;;4852904;29;20048;-79
2023/09/17 08:19:52;;;;;;;54.58;29.83;;;;;;;;;;4859876;29;20047;-79
2023/09/17 08:22:18;;;;;;;37.45;29.77;;;;;;;;;;4861225;29;20075;-79
2023/09/17 08:24:44;;;;;;;49.35;29.38;;;;;;;;;;4860232;29;20045;-79
2023/09/17 08:27:11;;;;;;;41.30;29.45;;;;;;;;;;4859047;29;20078;-78
2023/09/17 08:29:37;;;;;;;36.03;28.75;;;;;;;;;;4844748;29;20052;-80
2023/09/17 08:32:05;;;;;;;38.95;27.83;;;;;;;;;;4863867;29;20691;-80
2023/09/17 08:34:32;;;;;;;33.72;28.02;;;;;;;;;;4865129;29;20048;-79
2023/09/17 08:36:58;;;;;;;34.20;27.92;;;;;;;;;;4862119;29;20048;-79
2023/09/17 08:39:25;;;;;;;36.92;26.40;;;;;;;;;;4827584;29;20055;-78
2023/09/17 08:41:52;;;;;;;39.65;27.98;;;;;;;;;;4871638;29;20040;-76
2023/09/17 08:44:19;;;;;;;33.28;24.95;;;;;;;;;;4874497;29;20141;-75
2023/09/17 08:46:46;;;;;;;28.10;22.77;;;;;;;;;;4872760;29;20064;-75
2023/09/17 08:49:12;;;;;;;34.03;24.10;;;;;;;;;;4876968;29;20044;-75
2023/09/17 08:51:41;;;;;;;25.42;22.30;;;;;;;;;;4873186;29;20055;-75
2023/09/17 08:54:26;;;;;;;27.92;21.42;;;;;;;;;;4874870;29;20455;-75
2023/09/17 08:56:53;;;;;;;27.20;21.23;;;;;;;;;;4874539;29;20040;-75
2023/09/17 08:59:27;;;;;;;21.55;19.27;;;;;;;;;;4885206;29;20049;-75
2023/09/17 09:01:54;;;;;;;25.52;18.85;;;;;;;;;;4875401;29;20052;-75
2023/09/17 09:04:22;;;;;;;19.40;16.65;;;;;;;;;;4875002;29;20041;-75
2023/09/17 09:06:48;;;;;;;21.75;17.95;;;;;;;;;;4876485;29;20111;-75
2023/09/17 09:09:16;;;;;;;20.35;17.05;;;;;;;;;;4858008;29;20980;-75
2023/09/17 09:11:42;;;;;;;21.10;15.00;;;;;;;;;;4877460;29;20418;-75
2023/09/17 09:14:08;;;;;;;18.40;15.05;;;;;;;;;;4876751;29;21157;-75
2023/09/17 09:16:37;;;;;;;19.27;15.18;;;;;;;;;;4880120;29;20048;-75
2023/09/17 09:19:03;;;;;;;16.73;14.90;;;;;;;;;;4878284;29;20175;-75
2023/09/17 09:21:29;;;;;;;16.08;14.07;;;;;;;;;;4878742;29;20147;-75
2023/09/17 09:23:58;;;;;;;18.75;14.13;;;;;;;;;;4878191;29;20052;-75
2023/09/17 09:26:37;;;;;;;15.15;13.55;;;;;;;;;;4879010;29;20048;-75
2023/09/17 09:29:08;;;;;;;17.83;14.52;;;;;;;;;;4871314;29;20052;-75
2023/09/17 09:31:34;;;;;;;17.23;15.35;;;;;;;;;;4878301;29;20143;-75
2023/09/17 09:34:01;;;;;;;19.50;15.85;;;;;;;;;;4881378;29;20494;-75
2023/09/17 09:36:28;;;;;;;20.75;14.52;;;;;;;;;;4859227;29;20088;-75
2023/09/17 09:38:57;;;;;;;19.90;13.10;;;;;;;;;;4879790;29;20136;-75
2023/09/17 09:41:25;;;;;;;15.45;13.82;;;;;;;;;;4875491;29;20040;-75
2023/09/17 09:43:52;;;;;;;16.15;13.20;;;;;;;;;;4878541;29;20053;-75
2023/09/17 09:46:18;;;;;;;14.90;13.40;;;;;;;;;;4860930;29;20095;-75
2023/09/17 09:48:46;;;;;;;18.38;13.60;;;;;;;;;;4879384;29;21996;-75
2023/09/17 09:51:16;;;;;;;15.15;13.55;;;;;;;;;;4884465;29;20063;-75
2023/09/17 09:53:42;;;;;;;14.02;12.50;;;;;;;;;;4875930;29;20048;-75
2023/09/17 09:56:08;;;;;;;18.20;12.48;;;;;;;;;;4878597;29;20091;-75
2023/09/17 09:58:34;;;;;;;16.98;13.02;;;;;;;;;;4861229;29;20063;-75
2023/09/17 10:01:04;;;;;;;14.55;13.05;;;;;;;;;;4878706;29;20076;-75
2023/09/17 10:03:30;;;;;;;12.93;11.57;;;;;;;;;;4878990;29;20044;-75
2023/09/17 10:06:04;;;;;;;13.98;12.35;;;;;;;;;;4877088;29;20076;-75
2023/09/17 10:08:30;;;;;;;13.55;12.15;;;;;;;;;;4878528;29;20086;-75
2023/09/17 10:10:56;;;;;;;15.18;12.85;;;;;;;;;;4873589;29;20082;-75
2023/09/17 10:13:22;;;;;;;15.23;12.40;;;;;;;;;;4862155;29;20051;-75
2023/09/17 10:15:49;;;;;;;14.88;12.68;;;;;;;;;;4877695;29;20063;-76
2023/09/17 10:18:16;;;;;;;15.95;12.43;;;;;;;;;;4876787;29;20052;-76
2023/09/17 10:20:43;;;;;;;14.70;13.07;;;;;;;;;;4860539;29;20692;-76
2023/09/17 10:23:11;;;;;;;21.15;13.68;;;;;;;;;;4884704;29;20092;-75
2023/09/17 10:25:37;;;;;;;14.95;12.80;;;;;;;;;;4876396;29;20048;-75
2023/09/17 10:28:05;;;;;;;16.95;14.23;;;;;;;;;;4868063;29;20048;-75
2023/09/17 10:30:32;;;;;;;15.02;12.10;;;;;;;;;;4869578;29;20075;-76
2023/09/17 10:32:59;;;;;;;14.02;12.60;;;;;;;;;;4874620;29;20450;-75
2023/09/17 10:35:25;;;;;;;13.98;12.48;;;;;;;;;;4876719;29;20053;-77
2023/09/17 10:37:52;;;;;;;15.32;12.95;;;;;;;;;;4876553;29;20089;-75
2023/09/17 10:40:19;;;;;;;18.02;12.52;;;;;;;;;;4884490;29;22010;-75
2023/09/17 10:42:45;;;;;;;15.18;12.10;;;;;;;;;;4875865;29;20072;-75
2023/09/17 10:45:11;;;;;;;13.23;11.65;;;;;;;;;;4875109;29;20056;-75
2023/09/17 10:47:41;;;;;;;12.88;10.95;;;;;;;;;;4854942;29;20051;-73
2023/09/17 10:50:09;;;;;;;15.02;10.85;;;;;;;;;;4875990;29;20068;-75
2023/09/17 10:52:36;;;;;;;18.17;13.10;;;;;;;;;;4875937;29;20060;-75
2023/09/17 10:55:07;;;;;;;14.27;12.77;;;;;;;;;;4874274;29;20047;-74
2023/09/17 10:57:39;;;;;;;14.88;13.27;;;;;;;;;;4875896;29;20052;-74
2023/09/17 11:00:07;;;;;;;22.13;14.95;;;;;;;;;;4882848;29;20067;-74
2023/09/17 11:02:35;;;;;;;20.85;15.38;;;;;;;;;;4875505;29;20068;-72
2023/09/17 11:05:04;;;;;;;16.25;14.48;;;;;;;;;;4883477;29;20463;-74
2023/09/17 11:07:31;;;;;;;17.17;14.25;;;;;;;;;;4876631;29;20397;-74
2023/09/17 11:09:58;;;;;;;18.73;14.98;;;;;;;;;;4867443;29;20525;-75
2023/09/17 11:12:24;;;;;;;17.20;14.48;;;;;;;;;;4872297;29;20052;-75
2023/09/17 11:14:51;;;;;;;17.80;14.88;;;;;;;;;;4874658;29;20044;-74
2023/09/17 11:17:18;;;;;;;17.17;14.45;;;;;;;;;;4874212;29;20056;-75
2023/09/17 11:19:44;;;;;;;15.43;13.82;;;;;;;;;;4874317;29;20037;-75
2023/09/17 11:22:12;;;;;;;15.65;13.02;;;;;;;;;;4861868;29;20048;-75
2023/09/17 11:24:40;;;;;;;18.35;13.82;;;;;;;;;;4873339;29;20060;-75
2023/09/17 11:27:11;;;;;;;14.80;13.23;;;;;;;;;;4879111;29;20053;-75
2023/09/17 11:29:41;;;;;;;13.90;12.43;;;;;;;;;;4849816;29;20056;-78
2023/09/17 11:32:07;;;;;;;19.20;13.90;;;;;;;;;;4882854;29;20052;-76
2023/09/17 11:34:38;;;;;;;15.02;13.40;;;;;;;;;;4876284;29;20052;-76
2023/09/17 11:37:05;;;;;;;15.73;13.23;;;;;;;;;;4875239;29;20063;-76
2023/09/17 11:39:35;;;;;;;15.60;13.35;;;;;;;;;;4875916;29;20049;-76
2023/09/17 11:42:12;;;;;;;17.88;14.05;;;;;;;;;;4875904;29;20136;-76
2023/09/17 11:44:38;;;;;;;14.88;13.30;;;;;;;;;;4871172;29;20048;-75
2023/09/17 11:47:06;;;;;;;14.27;12.77;;;;;;;;;;4874339;29;20068;-75
2023/09/17 11:49:33;;;;;;;14.55;12.02;;;;;;;;;;4874922;29;20112;-76
2023/09/17 11:51:59;;;;;;;12.98;10.73;;;;;;;;;;4877380;29;20048;-75
2023/09/17 11:54:33;;;;;;;11.55;10.40;;;;;;;;;;4877184;29;20056;-75
2023/09/17 11:57:08;;;;;;;15.13;10.98;;;;;;;;;;5055354;28;20478;-75
2023/09/17 11:59:38;;;;;;;12.82;10.43;;;;;;;;;;5052767;28;20048;-75
2023/09/17 12:02:05;;;;;;;12.93;10.20;;;;;;;;;;5082387;28;20894;-75
2023/09/17 12:04:32;;;;;;;13.10;10.80;;;;;;;;;;5050641;28;20082;-75
2023/09/17 12:06:59;;;;;;;11.63;10.40;;;;;;;;;;5022767;28;20044;-75
2023/09/17 12:11:57;;;;;;;11.35;10.05;;;;;;;;;;5084548;28;20041;-76
2023/09/17 12:14:23;;;;;;;11.25;10.07;;;;;;;;;;5050136;28;20040;-76
2023/09/17 12:16:50;;;;;;;16.27;11.18;;;;;;;;;;5066161;28;20087;-76
2023/09/17 12:19:17;;;;;;;12.63;11.13;;;;;;;;;;5044485;28;20045;-75
2023/09/17 12:21:45;;;;;;;14.07;11.23;;;;;;;;;;5008449;28;20106;-75
2023/09/17 12:24:19;;;;;;;13.07;10.77;;;;;;;;;;5062287;28;20080;-75
2023/09/17 12:26:58;;;;;;;;;;;;;;;;;;5050280;28;20055;-75
2023/09/17 12:29:24;;;;;;;15.20;11.18;;;;;;;;;;5084633;28;20398;-75
2023/09/17 12:31:50;;;;;;;11.80;10.57;;;;;;;;;;5048313;28;20043;-75
2023/09/17 12:34:17;;;;;;;15.18;13.68;;;;;;;;;;5034506;28;20151;-75
2023/09/17 12:36:43;;;;;;;15.70;14.10;;;;;;;;;;5055471;28;20056;-75
2023/09/17 12:39:11;;;;;;;17.23;15.43;;;;;;;;;;5049864;28;20068;-75
2023/09/17 12:41:37;;;;;;;18.65;15.50;;;;;;;;;;5035523;28;20866;-75
2023/09/17 12:44:03;;;;;;;21.23;15.30;;;;;;;;;;5048845;28;20068;-75
2023/09/17 12:46:29;;;;;;;17.88;16.15;;;;;;;;;;5052932;28;20044;-75
2023/09/17 12:48:55;;;;;;;19.80;16.92;;;;;;;;;;5007089;28;20055;-76
2023/09/17 12:51:21;;;;;;;17.63;15.75;;;;;;;;;;5035430;28;20139;-75
2023/09/17 12:53:48;;;;;;;18.08;16.23;;;;;;;;;;5025335;28;20098;-75
2023/09/17 12:56:14;;;;;;;18.38;16.45;;;;;;;;;;5050175;28;20083;-75
2023/09/17 12:58:40;;;;;;;16.65;15.05;;;;;;;;;;5059127;28;20127;-75
2023/09/17 13:01:07;;;;;;;19.55;17.52;;;;;;;;;;5039341;28;20134;-75
2023/09/17 13:03:33;;;;;;;18.73;16.80;;;;;;;;;;5038853;28;20047;-76
2023/09/17 13:05:59;;;;;;;19.17;17.17;;;;;;;;;;5031149;28;20403;-76
2023/09/17 13:08:27;;;;;;;19.45;17.45;;;;;;;;;;5031609;28;20157;-76
2023/09/17 13:10:57;;;;;;;18.73;16.83;;;;;;;;;;5029346;28;20049;-76
2023/09/17 13:13:23;;;;;;;21.30;16.85;;;;;;;;;;5030571;28;20044;-76
2023/09/17 13:15:49;;;;;;;18.73;16.90;;;;;;;;;;5032694;28;20135;-76
2023/09/17 13:18:15;;;;;;;19.33;17.48;;;;;;;;;;5017145;28;20044;-76
2023/09/17 13:20:41;;;;;;;21.70;17.40;;;;;;;;;;5010959;28;22058;-75
2023/09/17 13:23:08;;;;;;;20.10;17.13;;;;;;;;;;5010029;28;20052;-75
2023/09/17 13:25:34;;;;;;;17.75;15.95;;;;;;;;;;5004431;28;20408;-75
2023/09/17 13:28:10;;;;;;;20.85;17.67;;;;;;;;;;5025710;28;20036;-75
2023/09/17 13:30:37;;;;;;;20.48;17.02;;;;;;;;;;5025543;28;20595;-75
2023/09/17 13:33:05;;;;;;;18.63;16.67;;;;;;;;;;5009171;28;20051;-75
2023/09/17 13:35:31;;;;;;;18.75;16.85;;;;;;;;;;5006952;28;20055;-75
2023/09/17 13:37:58;;;;;;;20.58;18.45;;;;;;;;;;5024694;28;20040;-75
2023/09/17 13:40:24;;;;;;;19.35;16.98;;;;;;;;;;5027375;28;20044;-75
2023/09/17 13:42:50;;;;;;;21.13;17.88;;;;;;;;;;5024336;28;20056;-75
2023/09/17 13:45:19;;;;;;;20.48;18.23;;;;;;;;;;5026273;28;20049;-76
2023/09/17 13:47:45;;;;;;;22.73;17.60;;;;;;;;;;5027556;28;20056;-76
2023/09/17 13:50:11;;;;;;;20.92;17.55;;;;;;;;;;5027342;28;22030;-76
2023/09/17 13:52:37;;;;;;;22.27;18.30;;;;;;;;;;5010065;28;20048;-76
2023/09/17 13:55:04;;;;;;;20.77;18.65;;;;;;;;;;5026808;28;20191;-76
2023/09/17 13:57:30;;;;;;;19.90;17.85;;;;;;;;;;5011526;28;20135;-76
2023/09/17 13:59:56;;;;;;;19.58;17.58;;;;;;;;;;5028398;28;20527;-76
2023/09/17 14:02:22;;;;;;;22.85;18.05;;;;;;;;;;5023280;28;20075;-76
2023/09/17 14:04:48;;;;;;;20.67;17.20;;;;;;;;;;5027010;28;20047;-76
2023/09/17 14:07:14;;;;;;;20.13;16.55;;;;;;;;;;5027390;28;20052;-76
2023/09/17 14:09:40;;;;;;;19.08;17.17;;;;;;;;;;5028148;28;20040;-76
2023/09/17 14:12:08;;;;;;;24.10;17.08;;;;;;;;;;5022159;28;20048;-76
2023/09/17 14:14:34;;;;;;;18.13;15.75;;;;;;;;;;5046376;28;20544;-76
2023/09/17 14:17:00;;;;;;;18.80;16.27;;;;;;;;;;5024765;28;20053;-76
2023/09/17 14:19:26;;;;;;;18.17;16.13;;;;;;;;;;5039891;28;21994;-77